sensor_id;sensor_type;location;lat;lon;timestamp;P1;durP1;ratioP1;P2;durP2;ratioP2
12956;SDS011;6543;48.836;10.092;2024-02-15T00:00:57;3.03;;;1.93;;
12956;SDS011;6543;48.836;10.092;2024-02-15T00:03:25;6.37;;;2.30;;
12956;SDS011;6543;48.836;10.092;2024-02-15T00:05:51;1.90;;;1.63;;
12956;SDS011;6543;48.836;10.092;2024-02-15T00:08:18;3.70;;;2.03;;
12956;SDS011;6543;48.836;10.092;2024-02-15T00:10:46;2.20;;;1.97;;
12956;SDS011;6543;48.836;10.092;2024-02-15T00:13:13;3.03;;;1.67;;
12956;SDS011;6543;48.836;10.092;2024-02-15T00:15:40;2.47;;;1.90;;
12956;SDS011;6543;48.836;10.092;2024-02-15T00:18:08;2.77;;;1.80;;
12956;SDS011;6543;48.836;10.092;2024-02-15T00:20:35;1.73;;;1.63;;
12956;SDS011;6543;48.836;10.092;2024-02-15T00:23:02;2.93;;;2.00;;
12956;SDS011;6543;48.836;10.092;2024-02-15T00:25:29;4.67;;;2.00;;
12956;SDS011;6543;48.836;10.092;2024-02-15T00:27:56;4.23;;;2.27;;
12956;SDS011;6543;48.836;10.092;2024-02-15T00:30:25;2.97;;;2.00;;
12956;SDS011;6543;48.836;10.092;2024-02-15T00:32:52;3.07;;;1.90;;
12956;SDS011;6543;48.836;10.092;2024-02-15T00:35:20;3.67;;;2.80;;
12956;SDS011;6543;48.836;10.092;2024-02-15T00:37:47;3.90;;;2.67;;
12956;SDS011;6543;48.836;10.092;2024-02-15T00:40:14;2.47;;;2.00;;
12956;SDS011;6543;48.836;10.092;2024-02-15T00:42:41;7.63;;;2.40;;
12956;SDS011;6543;48.836;10.092;2024-02-15T00:45:08;4.80;;;2.43;;
12956;SDS011;6543;48.836;10.092;2024-02-15T00:47:35;3.63;;;2.97;;
12956;SDS011;6543;48.836;10.092;2024-02-15T00:50:03;4.00;;;2.70;;
12956;SDS011;6543;48.836;10.092;2024-02-15T00:52:31;5.93;;;2.60;;
12956;SDS011;6543;48.836;10.092;2024-02-15T00:54:58;2.97;;;2.40;;
12956;SDS011;6543;48.836;10.092;2024-02-15T00:57:25;5.03;;;2.50;;
12956;SDS011;6543;48.836;10.092;2024-02-15T00:59:52;4.10;;;2.67;;
12956;SDS011;6543;48.836;10.092;2024-02-15T01:02:18;3.37;;;2.40;;
12956;SDS011;6543;48.836;10.092;2024-02-15T01:04:46;2.50;;;2.30;;
12956;SDS011;6543;48.836;10.092;2024-02-15T01:07:13;5.67;;;2.47;;
12956;SDS011;6543;48.836;10.092;2024-02-15T01:09:41;3.87;;;2.47;;
12956;SDS011;6543;48.836;10.092;2024-02-15T01:12:08;3.30;;;2.60;;
12956;SDS011;6543;48.836;10.092;2024-02-15T01:14:35;6.47;;;2.77;;
12956;SDS011;6543;48.836;10.092;2024-02-15T01:17:02;7.83;;;2.70;;
12956;SDS011;6543;48.836;10.092;2024-02-15T01:19:29;6.10;;;2.73;;
12956;SDS011;6543;48.836;10.092;2024-02-15T01:21:55;5.77;;;2.70;;
12956;SDS011;6543;48.836;10.092;2024-02-15T01:24:23;6.10;;;2.63;;
12956;SDS011;6543;48.836;10.092;2024-02-15T01:26:51;6.37;;;2.93;;
12956;SDS011;6543;48.836;10.092;2024-02-15T01:29:19;5.70;;;2.63;;
12956;SDS011;6543;48.836;10.092;2024-02-15T01:31:46;6.00;;;2.90;;
12956;SDS011;6543;48.836;10.092;2024-02-15T01:34:13;3.70;;;2.80;;
12956;SDS011;6543;48.836;10.092;2024-02-15T01:36:40;9.27;;;3.90;;
12956;SDS011;6543;48.836;10.092;2024-02-15T01:39:07;4.37;;;2.63;;
12956;SDS011;6543;48.836;10.092;2024-02-15T01:41:33;5.90;;;4.07;;
12956;SDS011;6543;48.836;10.092;2024-02-15T01:44:00;6.10;;;4.67;;
12956;SDS011;6543;48.836;10.092;2024-02-15T01:46:28;9.53;;;5.77;;
12956;SDS011;6543;48.836;10.092;2024-02-15T01:48:56;10.80;;;6.00;;
12956;SDS011;6543;48.836;10.092;2024-02-15T01:51:23;10.53;;;6.50;;
12956;SDS011;6543;48.836;10.092;2024-02-15T01:53:51;9.73;;;6.27;;
12956;SDS011;6543;48.836;10.092;2024-02-15T01:56:20;10.83;;;6.47;;
12956;SDS011;6543;48.836;10.092;2024-02-15T01:58:48;12.97;;;6.43;;
12956;SDS011;6543;48.836;10.092;2024-02-15T02:01:17;10.13;;;5.30;;
12956;SDS011;6543;48.836;10.092;2024-02-15T02:03:45;8.13;;;3.80;;
12956;SDS011;6543;48.836;10.092;2024-02-15T02:06:11;4.60;;;3.60;;
12956;SDS011;6543;48.836;10.092;2024-02-15T02:08:39;6.00;;;2.73;;
12956;SDS011;6543;48.836;10.092;2024-02-15T02:11:06;2.83;;;2.37;;
12956;SDS011;6543;48.836;10.092;2024-02-15T02:13:33;5.67;;;2.27;;
12956;SDS011;6543;48.836;10.092;2024-02-15T02:16:00;3.23;;;2.53;;
12956;SDS011;6543;48.836;10.092;2024-02-15T02:18:28;5.27;;;2.17;;
12956;SDS011;6543;48.836;10.092;2024-02-15T02:20:55;3.87;;;2.33;;
12956;SDS011;6543;48.836;10.092;2024-02-15T02:23:24;2.20;;;2.00;;
12956;SDS011;6543;48.836;10.092;2024-02-15T02:25:53;3.10;;;2.37;;
12956;SDS011;6543;48.836;10.092;2024-02-15T02:28:21;3.70;;;2.70;;
12956;SDS011;6543;48.836;10.092;2024-02-15T02:30:48;5.50;;;3.33;;
12956;SDS011;6543;48.836;10.092;2024-02-15T02:33:14;4.97;;;3.13;;
12956;SDS011;6543;48.836;10.092;2024-02-15T02:35:43;5.90;;;3.80;;
12956;SDS011;6543;48.836;10.092;2024-02-15T02:38:11;5.83;;;3.90;;
12956;SDS011;6543;48.836;10.092;2024-02-15T02:40:39;6.13;;;3.80;;
12956;SDS011;6543;48.836;10.092;2024-02-15T02:43:07;5.43;;;3.50;;
12956;SDS011;6543;48.836;10.092;2024-02-15T02:45:34;3.30;;;3.00;;
12956;SDS011;6543;48.836;10.092;2024-02-15T02:48:01;3.57;;;2.63;;
12956;SDS011;6543;48.836;10.092;2024-02-15T02:50:28;6.77;;;2.33;;
12956;SDS011;6543;48.836;10.092;2024-02-15T02:52:55;5.30;;;2.80;;
12956;SDS011;6543;48.836;10.092;2024-02-15T02:55:22;3.13;;;2.70;;
12956;SDS011;6543;48.836;10.092;2024-02-15T02:57:51;6.30;;;2.47;;
12956;SDS011;6543;48.836;10.092;2024-02-15T03:00:21;6.63;;;3.13;;
12956;SDS011;6543;48.836;10.092;2024-02-15T03:02:48;2.20;;;1.77;;
12956;SDS011;6543;48.836;10.092;2024-02-15T03:05:15;6.47;;;2.40;;
12956;SDS011;6543;48.836;10.092;2024-02-15T03:07:41;3.03;;;2.03;;
12956;SDS011;6543;48.836;10.092;2024-02-15T03:10:09;5.47;;;2.63;;
12956;SDS011;6543;48.836;10.092;2024-02-15T03:15:27;3.47;;;2.93;;
12956;SDS011;6543;48.836;10.092;2024-02-15T03:15:58;4.90;;;3.17;;
12956;SDS011;6543;48.836;10.092;2024-02-15T03:18:25;6.43;;;2.93;;
12956;SDS011;6543;48.836;10.092;2024-02-15T03:20:51;7.60;;;3.33;;
12956;SDS011;6543;48.836;10.092;2024-02-15T03:23:18;4.90;;;3.30;;
12956;SDS011;6543;48.836;10.092;2024-02-15T03:25:45;7.23;;;5.10;;
12956;SDS011;6543;48.836;10.092;2024-02-15T03:28:14;6.13;;;4.50;;
12956;SDS011;6543;48.836;10.092;2024-02-15T03:30:41;7.27;;;4.20;;
12956;SDS011;6543;48.836;10.092;2024-02-15T03:33:10;5.30;;;4.00;;
12956;SDS011;6543;48.836;10.092;2024-02-15T03:35:38;5.70;;;3.73;;
12956;SDS011;6543;48.836;10.092;2024-02-15T03:38:05;12.27;;;9.10;;
12956;SDS011;6543;48.836;10.092;2024-02-15T03:40:32;7.13;;;4.50;;
12956;SDS011;6543;48.836;10.092;2024-02-15T03:42:59;8.53;;;3.50;;
12956;SDS011;6543;48.836;10.092;2024-02-15T03:45:26;6.40;;;3.63;;
12956;SDS011;6543;48.836;10.092;2024-02-15T03:47:53;8.37;;;2.70;;
12956;SDS011;6543;48.836;10.092;2024-02-15T03:50:22;5.50;;;3.47;;
12956;SDS011;6543;48.836;10.092;2024-02-15T03:52:49;5.90;;;3.33;;
12956;SDS011;6543;48.836;10.092;2024-02-15T03:55:16;13.87;;;3.67;;
12956;SDS011;6543;48.836;10.092;2024-02-15T03:57:43;9.07;;;3.30;;
12956;SDS011;6543;48.836;10.092;2024-02-15T04:00:11;6.70;;;3.10;;
12956;SDS011;6543;48.836;10.092;2024-02-15T04:02:40;8.13;;;3.57;;
12956;SDS011;6543;48.836;10.092;2024-02-15T04:05:07;6.70;;;3.33;;
12956;SDS011;6543;48.836;10.092;2024-02-15T04:07:38;4.13;;;2.70;;
12956;SDS011;6543;48.836;10.092;2024-02-15T04:10:05;5.77;;;3.03;;
12956;SDS011;6543;48.836;10.092;2024-02-15T04:12:33;4.27;;;2.63;;
12956;SDS011;6543;48.836;10.092;2024-02-15T04:15:01;4.10;;;2.13;;
12956;SDS011;6543;48.836;10.092;2024-02-15T04:17:32;6.77;;;3.17;;
12956;SDS011;6543;48.836;10.092;2024-02-15T04:20:00;7.27;;;2.90;;
12956;SDS011;6543;48.836;10.092;2024-02-15T04:22:27;5.30;;;3.67;;
12956;SDS011;6543;48.836;10.092;2024-02-15T04:24:55;6.97;;;4.40;;
12956;SDS011;6543;48.836;10.092;2024-02-15T04:27:22;8.30;;;4.70;;
12956;SDS011;6543;48.836;10.092;2024-02-15T04:29:48;7.73;;;4.93;;
12956;SDS011;6543;48.836;10.092;2024-02-15T04:32:15;10.13;;;5.33;;
12956;SDS011;6543;48.836;10.092;2024-02-15T04:34:44;9.33;;;4.93;;
12956;SDS011;6543;48.836;10.092;2024-02-15T04:37:11;7.87;;;4.40;;
12956;SDS011;6543;48.836;10.092;2024-02-15T04:39:39;4.93;;;3.13;;
12956;SDS011;6543;48.836;10.092;2024-02-15T04:42:07;6.83;;;2.60;;
12956;SDS011;6543;48.836;10.092;2024-02-15T04:44:36;3.07;;;2.30;;
12956;SDS011;6543;48.836;10.092;2024-02-15T04:47:04;4.80;;;1.77;;
12956;SDS011;6543;48.836;10.092;2024-02-15T04:49:31;3.03;;;2.30;;
12956;SDS011;6543;48.836;10.092;2024-02-15T04:51:58;3.60;;;2.30;;
12956;SDS011;6543;48.836;10.092;2024-02-15T04:54:26;5.30;;;2.20;;
12956;SDS011;6543;48.836;10.092;2024-02-15T04:56:54;1.93;;;1.73;;
12956;SDS011;6543;48.836;10.092;2024-02-15T04:59:23;3.97;;;1.50;;
12956;SDS011;6543;48.836;10.092;2024-02-15T05:01:51;8.43;;;2.50;;
12956;SDS011;6543;48.836;10.092;2024-02-15T05:04:18;2.90;;;2.33;;
12956;SDS011;6543;48.836;10.092;2024-02-15T05:06:44;3.43;;;2.40;;
12956;SDS011;6543;48.836;10.092;2024-02-15T05:09:11;6.13;;;3.03;;
12956;SDS011;6543;48.836;10.092;2024-02-15T05:11:39;5.40;;;3.17;;
12956;SDS011;6543;48.836;10.092;2024-02-15T05:14:06;5.57;;;4.20;;
12956;SDS011;6543;48.836;10.092;2024-02-15T05:16:37;5.30;;;3.63;;
12956;SDS011;6543;48.836;10.092;2024-02-15T05:19:07;7.37;;;3.53;;
12956;SDS011;6543;48.836;10.092;2024-02-15T05:21:36;5.67;;;3.20;;
12956;SDS011;6543;48.836;10.092;2024-02-15T05:24:04;6.60;;;3.67;;
12956;SDS011;6543;48.836;10.092;2024-02-15T05:26:31;5.43;;;3.77;;
12956;SDS011;6543;48.836;10.092;2024-02-15T05:28:58;8.97;;;3.40;;
12956;SDS011;6543;48.836;10.092;2024-02-15T05:31:25;5.87;;;3.63;;
12956;SDS011;6543;48.836;10.092;2024-02-15T05:33:53;7.43;;;3.80;;
12956;SDS011;6543;48.836;10.092;2024-02-15T05:36:20;5.67;;;3.83;;
12956;SDS011;6543;48.836;10.092;2024-02-15T05:38:51;4.57;;;3.27;;
12956;SDS011;6543;48.836;10.092;2024-02-15T05:41:18;9.77;;;4.40;;
12956;SDS011;6543;48.836;10.092;2024-02-15T05:43:46;9.33;;;3.97;;
12956;SDS011;6543;48.836;10.092;2024-02-15T05:46:13;5.70;;;4.00;;
12956;SDS011;6543;48.836;10.092;2024-02-15T05:48:40;10.27;;;3.90;;
12956;SDS011;6543;48.836;10.092;2024-02-15T05:51:09;6.33;;;4.60;;
12956;SDS011;6543;48.836;10.092;2024-02-15T05:53:35;7.27;;;4.57;;
12956;SDS011;6543;48.836;10.092;2024-02-15T05:56:03;7.97;;;5.63;;
12956;SDS011;6543;48.836;10.092;2024-02-15T05:58:31;7.73;;;5.27;;
12956;SDS011;6543;48.836;10.092;2024-02-15T06:00:58;8.40;;;5.80;;
12956;SDS011;6543;48.836;10.092;2024-02-15T06:03:27;10.00;;;7.80;;
12956;SDS011;6543;48.836;10.092;2024-02-15T06:05:53;14.30;;;7.23;;
12956;SDS011;6543;48.836;10.092;2024-02-15T06:08:24;11.17;;;6.70;;
12956;SDS011;6543;48.836;10.092;2024-02-15T06:10:52;10.77;;;6.60;;
12956;SDS011;6543;48.836;10.092;2024-02-15T06:13:19;8.93;;;5.60;;
12956;SDS011;6543;48.836;10.092;2024-02-15T06:15:45;9.87;;;5.70;;
12956;SDS011;6543;48.836;10.092;2024-02-15T06:18:17;11.20;;;5.90;;
12956;SDS011;6543;48.836;10.092;2024-02-15T06:20:46;10.87;;;6.33;;
12956;SDS011;6543;48.836;10.092;2024-02-15T06:23:15;7.43;;;5.57;;
12956;SDS011;6543;48.836;10.092;2024-02-15T06:25:43;5.73;;;4.23;;
12956;SDS011;6543;48.836;10.092;2024-02-15T06:28:10;9.03;;;4.43;;
12956;SDS011;6543;48.836;10.092;2024-02-15T06:31:00;5.70;;;4.17;;
12956;SDS011;6543;48.836;10.092;2024-02-15T06:33:44;9.10;;;4.07;;
12956;SDS011;6543;48.836;10.092;2024-02-15T06:36:28;5.37;;;3.10;;
12956;SDS011;6543;48.836;10.092;2024-02-15T06:39:13;7.30;;;4.07;;
12956;SDS011;6543;48.836;10.092;2024-02-15T06:41:58;6.93;;;3.70;;
12956;SDS011;6543;48.836;10.092;2024-02-15T06:44:26;8.83;;;3.30;;
12956;SDS011;6543;48.836;10.092;2024-02-15T06:46:52;9.03;;;3.83;;
12956;SDS011;6543;48.836;10.092;2024-02-15T06:49:20;8.47;;;3.87;;
12956;SDS011;6543;48.836;10.092;2024-02-15T06:51:47;8.43;;;4.97;;
12956;SDS011;6543;48.836;10.092;2024-02-15T06:54:14;6.27;;;4.70;;
12956;SDS011;6543;48.836;10.092;2024-02-15T06:56:42;11.10;;;5.50;;
12956;SDS011;6543;48.836;10.092;2024-02-15T06:59:12;11.47;;;4.13;;
12956;SDS011;6543;48.836;10.092;2024-02-15T07:01:40;4.23;;;3.20;;
12956;SDS011;6543;48.836;10.092;2024-02-15T07:04:07;10.57;;;3.30;;
12956;SDS011;6543;48.836;10.092;2024-02-15T07:06:35;5.20;;;2.90;;
12956;SDS011;6543;48.836;10.092;2024-02-15T07:09:02;4.50;;;3.20;;
12956;SDS011;6543;48.836;10.092;2024-02-15T07:11:30;5.00;;;2.67;;
12956;SDS011;6543;48.836;10.092;2024-02-15T07:13:59;4.33;;;2.87;;
12956;SDS011;6543;48.836;10.092;2024-02-15T07:16:27;2.27;;;2.00;;
12956;SDS011;6543;48.836;10.092;2024-02-15T07:18:54;3.53;;;2.67;;
12956;SDS011;6543;48.836;10.092;2024-02-15T07:21:21;4.60;;;3.13;;
12956;SDS011;6543;48.836;10.092;2024-02-15T07:23:51;4.83;;;3.10;;
12956;SDS011;6543;48.836;10.092;2024-02-15T07:26:19;7.43;;;3.37;;
12956;SDS011;6543;48.836;10.092;2024-02-15T07:28:49;7.53;;;2.63;;
12956;SDS011;6543;48.836;10.092;2024-02-15T07:31:17;9.43;;;4.27;;
12956;SDS011;6543;48.836;10.092;2024-02-15T07:33:47;10.23;;;5.20;;
12956;SDS011;6543;48.836;10.092;2024-02-15T07:36:17;11.23;;;6.10;;
12956;SDS011;6543;48.836;10.092;2024-02-15T07:38:46;16.00;;;7.30;;
12956;SDS011;6543;48.836;10.092;2024-02-15T07:41:13;16.67;;;8.10;;
12956;SDS011;6543;48.836;10.092;2024-02-15T07:43:40;22.87;;;8.10;;
12956;SDS011;6543;48.836;10.092;2024-02-15T07:46:11;14.60;;;7.80;;
12956;SDS011;6543;48.836;10.092;2024-02-15T07:48:39;12.93;;;7.43;;
12956;SDS011;6543;48.836;10.092;2024-02-15T07:51:13;14.80;;;8.47;;
12956;SDS011;6543;48.836;10.092;2024-02-15T07:53:43;17.40;;;9.73;;
12956;SDS011;6543;48.836;10.092;2024-02-15T07:56:10;15.38;;;10.88;;
12956;SDS011;6543;48.836;10.092;2024-02-15T07:58:38;15.63;;;9.80;;
12956;SDS011;6543;48.836;10.092;2024-02-15T08:01:07;12.37;;;8.60;;
12956;SDS011;6543;48.836;10.092;2024-02-15T08:03:35;12.53;;;8.40;;
12956;SDS011;6543;48.836;10.092;2024-02-15T08:06:02;13.13;;;7.03;;
12956;SDS011;6543;48.836;10.092;2024-02-15T08:08:33;11.33;;;5.80;;
12956;SDS011;6543;48.836;10.092;2024-02-15T08:11:01;7.83;;;4.60;;
12956;SDS011;6543;48.836;10.092;2024-02-15T08:13:29;7.40;;;3.60;;
12956;SDS011;6543;48.836;10.092;2024-02-15T08:15:56;13.37;;;3.37;;
12956;SDS011;6543;48.836;10.092;2024-02-15T08:18:23;2.73;;;2.40;;
12956;SDS011;6543;48.836;10.092;2024-02-15T08:20:50;8.80;;;3.93;;
12956;SDS011;6543;48.836;10.092;2024-02-15T08:23:17;10.47;;;3.83;;
12956;SDS011;6543;48.836;10.092;2024-02-15T08:25:46;11.43;;;4.93;;
12956;SDS011;6543;48.836;10.092;2024-02-15T08:28:13;10.70;;;5.20;;
12956;SDS011;6543;48.836;10.092;2024-02-15T08:30:40;8.00;;;5.53;;
12956;SDS011;6543;48.836;10.092;2024-02-15T08:33:07;10.07;;;6.67;;
12956;SDS011;6543;48.836;10.092;2024-02-15T08:35:36;12.20;;;6.97;;
12956;SDS011;6543;48.836;10.092;2024-02-15T08:38:04;14.70;;;7.53;;
12956;SDS011;6543;48.836;10.092;2024-02-15T08:40:32;16.40;;;9.43;;
12956;SDS011;6543;48.836;10.092;2024-02-15T08:43:01;12.63;;;8.87;;
12956;SDS011;6543;48.836;10.092;2024-02-15T08:45:28;11.20;;;6.77;;
12956;SDS011;6543;48.836;10.092;2024-02-15T08:47:55;15.20;;;7.87;;
12956;SDS011;6543;48.836;10.092;2024-02-15T08:50:22;18.10;;;9.90;;
12956;SDS011;6543;48.836;10.092;2024-02-15T08:52:49;22.20;;;11.32;;
12956;SDS011;6543;48.836;10.092;2024-02-15T08:55:16;16.90;;;7.20;;
12956;SDS011;6543;48.836;10.092;2024-02-15T08:57:45;7.83;;;4.90;;
12956;SDS011;6543;48.836;10.092;2024-02-15T09:00:14;8.50;;;4.40;;
12956;SDS011;6543;48.836;10.092;2024-02-15T09:02:42;6.87;;;3.50;;
12956;SDS011;6543;48.836;10.092;2024-02-15T09:05:09;8.83;;;3.37;;
12956;SDS011;6543;48.836;10.092;2024-02-15T09:07:39;6.20;;;3.47;;
12956;SDS011;6543;48.836;10.092;2024-02-15T09:10:13;4.13;;;2.60;;
12956;SDS011;6543;48.836;10.092;2024-02-15T09:13:04;12.57;;;2.83;;
12956;SDS011;6543;48.836;10.092;2024-02-15T09:15:47;5.43;;;2.83;;
12956;SDS011;6543;48.836;10.092;2024-02-15T09:18:16;8.23;;;3.17;;
12956;SDS011;6543;48.836;10.092;2024-02-15T09:20:50;5.33;;;2.93;;
12956;SDS011;6543;48.836;10.092;2024-02-15T09:23:20;7.57;;;3.10;;
12956;SDS011;6543;48.836;10.092;2024-02-15T09:25:54;8.23;;;3.00;;
12956;SDS011;6543;48.836;10.092;2024-02-15T09:28:26;4.27;;;1.70;;
12956;SDS011;6543;48.836;10.092;2024-02-15T09:30:55;9.23;;;1.90;;
12956;SDS011;6543;48.836;10.092;2024-02-15T09:33:24;7.47;;;2.10;;
12956;SDS011;6543;48.836;10.092;2024-02-15T09:36:29;5.43;;;1.83;;
12956;SDS011;6543;48.836;10.092;2024-02-15T09:38:54;4.20;;;1.40;;
12956;SDS011;6543;48.836;10.092;2024-02-15T09:41:26;1.53;;;0.77;;
12956;SDS011;6543;48.836;10.092;2024-02-15T09:43:57;3.43;;;1.20;;
12956;SDS011;6543;48.836;10.092;2024-02-15T09:46:31;4.00;;;1.30;;
12956;SDS011;6543;48.836;10.092;2024-02-15T09:49:41;3.17;;;0.97;;
12956;SDS011;6543;48.836;10.092;2024-02-15T09:52:11;4.10;;;0.70;;
12956;SDS011;6543;48.836;10.092;2024-02-15T09:54:43;5.40;;;1.47;;
12956;SDS011;6543;48.836;10.092;2024-02-15T09:57:11;5.03;;;1.13;;
12956;SDS011;6543;48.836;10.092;2024-02-15T09:59:38;8.73;;;2.60;;
12956;SDS011;6543;48.836;10.092;2024-02-15T10:02:11;4.83;;;0.80;;
12956;SDS011;6543;48.836;10.092;2024-02-15T10:04:39;1.00;;;0.50;;
12956;SDS011;6543;48.836;10.092;2024-02-15T10:07:07;2.73;;;1.00;;
12956;SDS011;6543;48.836;10.092;2024-02-15T10:09:34;3.40;;;0.97;;
12956;SDS011;6543;48.836;10.092;2024-02-15T10:12:02;7.67;;;1.30;;
12956;SDS011;6543;48.836;10.092;2024-02-15T10:14:31;2.80;;;0.70;;
12956;SDS011;6543;48.836;10.092;2024-02-15T10:17:05;4.80;;;1.30;;
12956;SDS011;6543;48.836;10.092;2024-02-15T10:19:37;1.50;;;0.73;;
12956;SDS011;6543;48.836;10.092;2024-02-15T10:22:07;4.30;;;0.90;;
12956;SDS011;6543;48.836;10.092;2024-02-15T10:24:36;3.83;;;1.10;;
12956;SDS011;6543;48.836;10.092;2024-02-15T10:27:06;1.77;;;1.37;;
12956;SDS011;6543;48.836;10.092;2024-02-15T10:29:35;4.00;;;1.20;;
12956;SDS011;6543;48.836;10.092;2024-02-15T10:32:05;3.60;;;1.37;;
12956;SDS011;6543;48.836;10.092;2024-02-15T10:34:35;2.20;;;0.93;;
12956;SDS011;6543;48.836;10.092;2024-02-15T10:37:11;2.80;;;1.00;;
12956;SDS011;6543;48.836;10.092;2024-02-15T10:39:41;4.37;;;1.10;;
12956;SDS011;6543;48.836;10.092;2024-02-15T10:42:08;3.03;;;0.90;;
12956;SDS011;6543;48.836;10.092;2024-02-15T10:44:37;1.73;;;0.90;;
12956;SDS011;6543;48.836;10.092;2024-02-15T10:47:08;4.83;;;1.30;;
12956;SDS011;6543;48.836;10.092;2024-02-15T10:49:36;4.97;;;1.20;;
12956;SDS011;6543;48.836;10.092;2024-02-15T10:52:08;6.20;;;1.50;;
12956;SDS011;6543;48.836;10.092;2024-02-15T10:54:46;3.37;;;1.17;;
12956;SDS011;6543;48.836;10.092;2024-02-15T10:57:19;5.77;;;1.50;;
12956;SDS011;6543;48.836;10.092;2024-02-15T10:59:51;8.80;;;1.67;;
12956;SDS011;6543;48.836;10.092;2024-02-15T11:02:28;4.37;;;1.23;;
12956;SDS011;6543;48.836;10.092;2024-02-15T11:04:58;4.37;;;1.53;;
12956;SDS011;6543;48.836;10.092;2024-02-15T11:07:30;7.03;;;1.70;;
12956;SDS011;6543;48.836;10.092;2024-02-15T11:09:57;2.77;;;1.27;;
12956;SDS011;6543;48.836;10.092;2024-02-15T11:12:25;4.93;;;1.23;;
12956;SDS011;6543;48.836;10.092;2024-02-15T11:14:53;4.33;;;0.93;;
12956;SDS011;6543;48.836;10.092;2024-02-15T11:23:14;7.60;;;1.00;;
12956;SDS011;6543;48.836;10.092;2024-02-15T11:25:50;1.50;;;1.10;;
12956;SDS011;6543;48.836;10.092;2024-02-15T11:28:36;2.87;;;1.00;;
12956;SDS011;6543;48.836;10.092;2024-02-15T11:31:08;2.33;;;0.93;;
12956;SDS011;6543;48.836;10.092;2024-02-15T11:33:37;3.33;;;1.40;;
12956;SDS011;6543;48.836;10.092;2024-02-15T11:36:05;2.57;;;0.80;;
12956;SDS011;6543;48.836;10.092;2024-02-15T11:38:34;5.00;;;1.60;;
12956;SDS011;6543;48.836;10.092;2024-02-15T11:41:02;3.63;;;1.00;;
12956;SDS011;6543;48.836;10.092;2024-02-15T11:43:46;5.53;;;0.73;;
12956;SDS011;6543;48.836;10.092;2024-02-15T11:46:21;2.03;;;1.13;;
12956;SDS011;6543;48.836;10.092;2024-02-15T11:48:50;1.40;;;0.97;;
12956;SDS011;6543;48.836;10.092;2024-02-15T11:51:25;1.80;;;0.90;;
12956;SDS011;6543;48.836;10.092;2024-02-15T11:54:01;5.37;;;1.23;;
12956;SDS011;6543;48.836;10.092;2024-02-15T11:56:55;2.80;;;0.77;;
12956;SDS011;6543;48.836;10.092;2024-02-15T11:59:38;3.75;;;1.48;;
12956;SDS011;6543;48.836;10.092;2024-02-15T12:02:18;3.20;;;1.50;;
12956;SDS011;6543;48.836;10.092;2024-02-15T12:05:03;3.40;;;1.33;;
12956;SDS011;6543;48.836;10.092;2024-02-15T12:07:49;4.47;;;1.73;;
12956;SDS011;6543;48.836;10.092;2024-02-15T12:10:35;2.33;;;1.20;;
12956;SDS011;6543;48.836;10.092;2024-02-15T12:13:28;4.17;;;1.40;;
12956;SDS011;6543;48.836;10.092;2024-02-15T12:16:15;5.23;;;1.13;;
12956;SDS011;6543;48.836;10.092;2024-02-15T12:18:59;2.37;;;1.10;;
12956;SDS011;6543;48.836;10.092;2024-02-15T12:21:28;2.07;;;0.90;;
12956;SDS011;6543;48.836;10.092;2024-02-15T12:23:55;4.07;;;0.87;;
12956;SDS011;6543;48.836;10.092;2024-02-15T12:26:24;3.43;;;1.43;;
12956;SDS011;6543;48.836;10.092;2024-02-15T12:28:53;5.57;;;1.50;;
12956;SDS011;6543;48.836;10.092;2024-02-15T12:31:21;3.30;;;0.83;;
12956;SDS011;6543;48.836;10.092;2024-02-15T12:33:59;4.50;;;1.23;;
12956;SDS011;6543;48.836;10.092;2024-02-15T12:36:27;3.47;;;1.30;;
12956;SDS011;6543;48.836;10.092;2024-02-15T12:39:00;2.30;;;1.37;;
12956;SDS011;6543;48.836;10.092;2024-02-15T12:41:36;3.23;;;0.80;;
12956;SDS011;6543;48.836;10.092;2024-02-15T12:44:05;2.50;;;1.20;;
12956;SDS011;6543;48.836;10.092;2024-02-15T12:46:35;3.33;;;1.30;;
12956;SDS011;6543;48.836;10.092;2024-02-15T12:49:07;2.67;;;1.03;;
12956;SDS011;6543;48.836;10.092;2024-02-15T12:51:38;2.33;;;1.00;;
12956;SDS011;6543;48.836;10.092;2024-02-15T12:54:08;3.47;;;1.20;;
12956;SDS011;6543;48.836;10.092;2024-02-15T12:56:37;1.97;;;1.17;;
12956;SDS011;6543;48.836;10.092;2024-02-15T12:59:04;5.43;;;1.37;;
12956;SDS011;6543;48.836;10.092;2024-02-15T13:01:31;5.07;;;1.00;;
12956;SDS011;6543;48.836;10.092;2024-02-15T13:03:59;3.20;;;1.30;;
12956;SDS011;6543;48.836;10.092;2024-02-15T13:06:26;3.10;;;1.17;;
12956;SDS011;6543;48.836;10.092;2024-02-15T13:08:53;3.97;;;1.20;;
12956;SDS011;6543;48.836;10.092;2024-02-15T13:11:20;2.83;;;1.13;;
12956;SDS011;6543;48.836;10.092;2024-02-15T13:13:49;3.07;;;1.30;;
12956;SDS011;6543;48.836;10.092;2024-02-15T13:16:17;3.40;;;1.27;;
12956;SDS011;6543;48.836;10.092;2024-02-15T13:18:45;3.20;;;1.10;;
12956;SDS011;6543;48.836;10.092;2024-02-15T13:21:12;6.27;;;1.37;;
12956;SDS011;6543;48.836;10.092;2024-02-15T13:23:39;1.53;;;0.80;;
12956;SDS011;6543;48.836;10.092;2024-02-15T13:26:05;3.27;;;1.60;;
12956;SDS011;6543;48.836;10.092;2024-02-15T13:28:33;5.23;;;1.03;;
12956;SDS011;6543;48.836;10.092;2024-02-15T13:31:01;4.37;;;1.23;;
12956;SDS011;6543;48.836;10.092;2024-02-15T13:33:28;2.33;;;0.90;;
12956;SDS011;6543;48.836;10.092;2024-02-15T13:35:56;6.43;;;1.20;;
12956;SDS011;6543;48.836;10.092;2024-02-15T13:38:23;3.83;;;1.20;;
12956;SDS011;6543;48.836;10.092;2024-02-15T13:40:53;7.13;;;1.33;;
12956;SDS011;6543;48.836;10.092;2024-02-15T13:43:21;2.13;;;1.10;;
12956;SDS011;6543;48.836;10.092;2024-02-15T13:45:48;4.22;;;1.50;;
12956;SDS011;6543;48.836;10.092;2024-02-15T13:48:17;2.63;;;1.03;;
12956;SDS011;6543;48.836;10.092;2024-02-15T13:50:44;1.90;;;0.90;;
12956;SDS011;6543;48.836;10.092;2024-02-15T13:53:12;2.07;;;1.00;;
12956;SDS011;6543;48.836;10.092;2024-02-15T13:55:39;5.93;;;1.30;;
12956;SDS011;6543;48.836;10.092;2024-02-15T13:58:06;2.53;;;1.07;;
12956;SDS011;6543;48.836;10.092;2024-02-15T14:00:37;3.63;;;1.30;;
12956;SDS011;6543;48.836;10.092;2024-02-15T14:03:07;2.50;;;1.13;;
12956;SDS011;6543;48.836;10.092;2024-02-15T14:05:36;3.00;;;1.40;;
12956;SDS011;6543;48.836;10.092;2024-02-15T14:08:05;3.13;;;1.30;;
12956;SDS011;6543;48.836;10.092;2024-02-15T14:10:34;4.77;;;1.43;;
12956;SDS011;6543;48.836;10.092;2024-02-15T14:13:02;8.40;;;1.30;;
12956;SDS011;6543;48.836;10.092;2024-02-15T14:15:30;2.37;;;1.50;;
12956;SDS011;6543;48.836;10.092;2024-02-15T14:17:59;2.37;;;1.30;;
12956;SDS011;6543;48.836;10.092;2024-02-15T14:20:26;3.67;;;1.50;;
12956;SDS011;6543;48.836;10.092;2024-02-15T14:22:54;4.53;;;1.80;;
12956;SDS011;6543;48.836;10.092;2024-02-15T14:25:21;2.60;;;1.10;;
12956;SDS011;6543;48.836;10.092;2024-02-15T14:27:48;3.30;;;1.40;;
12956;SDS011;6543;48.836;10.092;2024-02-15T14:30:15;2.33;;;1.30;;
12956;SDS011;6543;48.836;10.092;2024-02-15T14:33:00;5.47;;;1.67;;
12956;SDS011;6543;48.836;10.092;2024-02-15T14:35:28;8.83;;;2.27;;
12956;SDS011;6543;48.836;10.092;2024-02-15T14:38:01;2.87;;;1.40;;
12956;SDS011;6543;48.836;10.092;2024-02-15T14:40:31;3.33;;;1.00;;
12956;SDS011;6543;48.836;10.092;2024-02-15T14:42:59;2.13;;;1.10;;
12956;SDS011;6543;48.836;10.092;2024-02-15T14:45:26;4.37;;;1.60;;
12956;SDS011;6543;48.836;10.092;2024-02-15T14:47:53;2.10;;;1.40;;
12956;SDS011;6543;48.836;10.092;2024-02-15T14:50:20;6.77;;;1.73;;
12956;SDS011;6543;48.836;10.092;2024-02-15T14:52:48;2.90;;;1.60;;
12956;SDS011;6543;48.836;10.092;2024-02-15T14:55:18;5.27;;;1.70;;
12956;SDS011;6543;48.836;10.092;2024-02-15T14:57:45;3.07;;;1.67;;
12956;SDS011;6543;48.836;10.092;2024-02-15T15:00:12;1.50;;;1.10;;
12956;SDS011;6543;48.836;10.092;2024-02-15T15:02:45;3.30;;;1.63;;
12956;SDS011;6543;48.836;10.092;2024-02-15T15:05:15;2.07;;;1.30;;